sensor_id;sensor_type;location;lat;lon;timestamp;temperature;humidity
44477;DHT22;30180;44.788;10.366;2023-08-12T00:01:32;25.50;60.70
44477;DHT22;30180;44.788;10.366;2023-08-12T00:04:00;25.50;60.70
44477;DHT22;30180;44.788;10.366;2023-08-12T00:06:29;25.40;60.60
44477;DHT22;30180;44.788;10.366;2023-08-12T00:08:57;25.40;61.30
44477;DHT22;30180;44.788;10.366;2023-08-12T00:11:25;25.40;60.60
44477;DHT22;30180;44.788;10.366;2023-08-12T00:13:53;25.40;60.60
44477;DHT22;30180;44.788;10.366;2023-08-12T00:16:21;25.40;60.60
44477;DHT22;30180;44.788;10.366;2023-08-12T00:18:51;25.40;60.60
44477;DHT22;30180;44.788;10.366;2023-08-12T00:21:19;25.40;60.70
44477;DHT22;30180;44.788;10.366;2023-08-12T00:23:48;25.50;60.70
44477;DHT22;30180;44.788;10.366;2023-08-12T00:26:17;25.50;60.70
44477;DHT22;30180;44.788;10.366;2023-08-12T00:28:48;25.40;60.70
44477;DHT22;30180;44.788;10.366;2023-08-12T00:31:16;25.40;60.60
44477;DHT22;30180;44.788;10.366;2023-08-12T00:33:45;25.50;60.70
44477;DHT22;30180;44.788;10.366;2023-08-12T00:36:14;25.40;60.60
44477;DHT22;30180;44.788;10.366;2023-08-12T00:38:43;25.40;60.60
44477;DHT22;30180;44.788;10.366;2023-08-12T00:41:11;25.40;60.60
44477;DHT22;30180;44.788;10.366;2023-08-12T00:43:39;25.50;60.70
44477;DHT22;30180;44.788;10.366;2023-08-12T00:46:07;25.40;60.60
44477;DHT22;30180;44.788;10.366;2023-08-12T00:48:35;25.40;60.60
44477;DHT22;30180;44.788;10.366;2023-08-12T00:51:04;25.40;60.60
44477;DHT22;30180;44.788;10.366;2023-08-12T00:53:34;25.40;60.60
44477;DHT22;30180;44.788;10.366;2023-08-12T00:56:03;25.40;60.60
44477;DHT22;30180;44.788;10.366;2023-08-12T00:58:32;25.40;60.60
44477;DHT22;30180;44.788;10.366;2023-08-12T01:01:00;25.50;60.60
44477;DHT22;30180;44.788;10.366;2023-08-12T01:03:28;25.40;60.60
44477;DHT22;30180;44.788;10.366;2023-08-12T01:05:58;25.40;60.60
44477;DHT22;30180;44.788;10.366;2023-08-12T01:08:30;25.40;60.60
44477;DHT22;30180;44.788;10.366;2023-08-12T01:11:14;25.40;60.50
44477;DHT22;30180;44.788;10.366;2023-08-12T01:13:52;25.50;60.60
44477;DHT22;30180;44.788;10.366;2023-08-12T01:16:27;25.40;60.50
44477;DHT22;30180;44.788;10.366;2023-08-12T01:18:57;25.50;60.60
44477;DHT22;30180;44.788;10.366;2023-08-12T01:21:29;25.40;60.50
44477;DHT22;30180;44.788;10.366;2023-08-12T01:24:00;25.40;61.20
44477;DHT22;30180;44.788;10.366;2023-08-12T01:26:29;25.40;60.50
44477;DHT22;30180;44.788;10.366;2023-08-12T01:28:57;25.40;60.50
44477;DHT22;30180;44.788;10.366;2023-08-12T01:31:32;25.40;60.50
44477;DHT22;30180;44.788;10.366;2023-08-12T01:34:06;25.40;60.50
44477;DHT22;30180;44.788;10.366;2023-08-12T01:36:37;25.40;60.50
44477;DHT22;30180;44.788;10.366;2023-08-12T01:39:08;25.40;60.50
44477;DHT22;30180;44.788;10.366;2023-08-12T01:41:38;25.40;60.50
44477;DHT22;30180;44.788;10.366;2023-08-12T01:44:07;25.40;60.50
44477;DHT22;30180;44.788;10.366;2023-08-12T01:46:36;25.40;60.50
44477;DHT22;30180;44.788;10.366;2023-08-12T01:49:04;25.40;60.50
44477;DHT22;30180;44.788;10.366;2023-08-12T01:51:32;25.40;60.50
44477;DHT22;30180;44.788;10.366;2023-08-12T01:54:01;25.40;60.50
44477;DHT22;30180;44.788;10.366;2023-08-12T01:56:31;25.40;60.40
44477;DHT22;30180;44.788;10.366;2023-08-12T01:58:59;25.40;60.50
44477;DHT22;30180;44.788;10.366;2023-08-12T02:01:27;25.40;60.50
44477;DHT22;30180;44.788;10.366;2023-08-12T02:03:55;25.40;60.40
44477;DHT22;30180;44.788;10.366;2023-08-12T02:06:24;25.40;60.40
44477;DHT22;30180;44.788;10.366;2023-08-12T02:08:52;25.40;60.40
44477;DHT22;30180;44.788;10.366;2023-08-12T02:11:20;25.40;60.40
44477;DHT22;30180;44.788;10.366;2023-08-12T02:13:50;25.40;60.40
44477;DHT22;30180;44.788;10.366;2023-08-12T02:16:18;25.40;60.40
44477;DHT22;30180;44.788;10.366;2023-08-12T02:18:47;25.40;60.40
44477;DHT22;30180;44.788;10.366;2023-08-12T02:21:15;25.40;60.40
44477;DHT22;30180;44.788;10.366;2023-08-12T02:23:43;25.40;60.40
44477;DHT22;30180;44.788;10.366;2023-08-12T02:26:12;25.40;60.40
44477;DHT22;30180;44.788;10.366;2023-08-12T02:28:40;25.40;60.40
44477;DHT22;30180;44.788;10.366;2023-08-12T02:31:10;25.40;60.40
44477;DHT22;30180;44.788;10.366;2023-08-12T02:33:38;25.40;60.40
44477;DHT22;30180;44.788;10.366;2023-08-12T02:36:06;25.40;60.30
44477;DHT22;30180;44.788;10.366;2023-08-12T02:38:34;25.40;60.30
44477;DHT22;30180;44.788;10.366;2023-08-12T02:41:02;25.40;60.30
44477;DHT22;30180;44.788;10.366;2023-08-12T02:43:31;25.40;60.30
44477;DHT22;30180;44.788;10.366;2023-08-12T02:45:59;25.40;60.30
44477;DHT22;30180;44.788;10.366;2023-08-12T02:48:29;25.40;60.30
44477;DHT22;30180;44.788;10.366;2023-08-12T02:50:57;25.40;60.30
44477;DHT22;30180;44.788;10.366;2023-08-12T02:53:25;25.40;60.30
44477;DHT22;30180;44.788;10.366;2023-08-12T02:55:53;25.40;60.30
44477;DHT22;30180;44.788;10.366;2023-08-12T02:58:22;25.40;60.30
44477;DHT22;30180;44.788;10.366;2023-08-12T03:00:50;25.40;60.30
44477;DHT22;30180;44.788;10.366;2023-08-12T03:03:18;25.40;60.30
44477;DHT22;30180;44.788;10.366;2023-08-12T03:05:48;25.40;60.30
44477;DHT22;30180;44.788;10.366;2023-08-12T03:08:17;25.40;60.30
44477;DHT22;30180;44.788;10.366;2023-08-12T03:10:45;25.40;60.20
44477;DHT22;30180;44.788;10.366;2023-08-12T03:13:13;25.40;60.20
44477;DHT22;30180;44.788;10.366;2023-08-12T03:15:42;25.40;60.20
44477;DHT22;30180;44.788;10.366;2023-08-12T03:18:10;25.40;60.20
44477;DHT22;30180;44.788;10.366;2023-08-12T03:20:38;25.40;60.20
44477;DHT22;30180;44.788;10.366;2023-08-12T03:23:08;25.40;60.20
44477;DHT22;30180;44.788;10.366;2023-08-12T03:25:36;25.40;60.20
44477;DHT22;30180;44.788;10.366;2023-08-12T03:28:04;25.40;60.10
44477;DHT22;30180;44.788;10.366;2023-08-12T03:30:33;25.40;60.20
44477;DHT22;30180;44.788;10.366;2023-08-12T03:33:01;25.40;60.10
44477;DHT22;30180;44.788;10.366;2023-08-12T03:35:30;25.40;60.20
44477;DHT22;30180;44.788;10.366;2023-08-12T03:37:58;25.40;60.20
44477;DHT22;30180;44.788;10.366;2023-08-12T03:40:27;25.40;60.20
44477;DHT22;30180;44.788;10.366;2023-08-12T03:42:56;25.40;60.10
44477;DHT22;30180;44.788;10.366;2023-08-12T03:45:24;25.30;60.00
44477;DHT22;30180;44.788;10.366;2023-08-12T03:47:52;25.40;60.10
44477;DHT22;30180;44.788;10.366;2023-08-12T03:50:21;25.30;60.10
44477;DHT22;30180;44.788;10.366;2023-08-12T03:52:49;25.40;60.10
44477;DHT22;30180;44.788;10.366;2023-08-12T03:55:17;25.40;60.10
44477;DHT22;30180;44.788;10.366;2023-08-12T03:57:47;25.40;60.10
44477;DHT22;30180;44.788;10.366;2023-08-12T04:00:15;25.40;60.10
44477;DHT22;30180;44.788;10.366;2023-08-12T04:02:44;25.40;60.10
44477;DHT22;30180;44.788;10.366;2023-08-12T04:05:12;25.30;60.00
44477;DHT22;30180;44.788;10.366;2023-08-12T04:07:40;25.30;60.00
44477;DHT22;30180;44.788;10.366;2023-08-12T04:10:09;25.40;60.10
44477;DHT22;30180;44.788;10.366;2023-08-12T04:12:39;25.40;60.10
44477;DHT22;30180;44.788;10.366;2023-08-12T04:15:10;25.40;60.10
44477;DHT22;30180;44.788;10.366;2023-08-12T04:17:38;25.40;60.10
44477;DHT22;30180;44.788;10.366;2023-08-12T04:20:08;25.30;60.00
44477;DHT22;30180;44.788;10.366;2023-08-12T04:22:37;25.40;60.10
44477;DHT22;30180;44.788;10.366;2023-08-12T04:25:06;25.30;60.00
44477;DHT22;30180;44.788;10.366;2023-08-12T04:27:35;25.30;60.00
44477;DHT22;30180;44.788;10.366;2023-08-12T04:30:04;25.40;60.10
44477;DHT22;30180;44.788;10.366;2023-08-12T04:32:33;25.40;60.10
44477;DHT22;30180;44.788;10.366;2023-08-12T04:35:02;25.40;60.10
44477;DHT22;30180;44.788;10.366;2023-08-12T04:37:31;25.30;60.00
44477;DHT22;30180;44.788;10.366;2023-08-12T04:40:00;25.40;60.10
44477;DHT22;30180;44.788;10.366;2023-08-12T04:42:28;25.30;60.00
44477;DHT22;30180;44.788;10.366;2023-08-12T04:44:56;25.30;60.00
44477;DHT22;30180;44.788;10.366;2023-08-12T04:47:24;25.30;60.00
44477;DHT22;30180;44.788;10.366;2023-08-12T04:49:57;25.40;60.00
44477;DHT22;30180;44.788;10.366;2023-08-12T04:52:25;25.40;60.00
44477;DHT22;30180;44.788;10.366;2023-08-12T04:54:53;25.40;60.00
44477;DHT22;30180;44.788;10.366;2023-08-12T04:57:21;25.30;60.00
44477;DHT22;30180;44.788;10.366;2023-08-12T04:59:50;25.30;60.00
44477;DHT22;30180;44.788;10.366;2023-08-12T05:02:18;25.30;59.90
44477;DHT22;30180;44.788;10.366;2023-08-12T05:04:48;25.30;59.90
44477;DHT22;30180;44.788;10.366;2023-08-12T05:07:18;25.30;59.90
44477;DHT22;30180;44.788;10.366;2023-08-12T05:09:46;25.30;59.90
44477;DHT22;30180;44.788;10.366;2023-08-12T05:12:15;25.30;59.90
44477;DHT22;30180;44.788;10.366;2023-08-12T05:14:43;25.30;59.90
44477;DHT22;30180;44.788;10.366;2023-08-12T05:17:11;25.40;60.00
44477;DHT22;30180;44.788;10.366;2023-08-12T05:19:40;25.30;59.90
44477;DHT22;30180;44.788;10.366;2023-08-12T05:22:08;25.40;59.90
44477;DHT22;30180;44.788;10.366;2023-08-12T05:24:38;25.30;59.80
44477;DHT22;30180;44.788;10.366;2023-08-12T05:27:06;25.30;59.80
44477;DHT22;30180;44.788;10.366;2023-08-12T05:29:35;25.40;59.90
44477;DHT22;30180;44.788;10.366;2023-08-12T05:32:04;25.30;59.80
44477;DHT22;30180;44.788;10.366;2023-08-12T05:34:32;25.30;59.80
44477;DHT22;30180;44.788;10.366;2023-08-12T05:37:00;25.30;59.80
44477;DHT22;30180;44.788;10.366;2023-08-12T05:39:29;25.40;59.90
44477;DHT22;30180;44.788;10.366;2023-08-12T05:41:59;25.30;59.80
44477;DHT22;30180;44.788;10.366;2023-08-12T05:44:27;25.30;59.80
44477;DHT22;30180;44.788;10.366;2023-08-12T05:46:55;25.30;59.80
44477;DHT22;30180;44.788;10.366;2023-08-12T05:49:24;25.30;59.80
44477;DHT22;30180;44.788;10.366;2023-08-12T05:51:52;25.30;59.80
44477;DHT22;30180;44.788;10.366;2023-08-12T05:54:20;25.40;59.90
44477;DHT22;30180;44.788;10.366;2023-08-12T05:56:49;25.40;59.90
44477;DHT22;30180;44.788;10.366;2023-08-12T05:59:18;25.40;59.90
44477;DHT22;30180;44.788;10.366;2023-08-12T06:01:47;25.30;59.80
44477;DHT22;30180;44.788;10.366;2023-08-12T06:04:15;25.30;59.80
44477;DHT22;30180;44.788;10.366;2023-08-12T06:06:43;25.30;59.80
44477;DHT22;30180;44.788;10.366;2023-08-12T06:09:12;25.30;59.80
44477;DHT22;30180;44.788;10.366;2023-08-12T06:11:40;25.30;59.80
44477;DHT22;30180;44.788;10.366;2023-08-12T06:14:09;25.30;59.80
44477;DHT22;30180;44.788;10.366;2023-08-12T06:16:38;25.30;59.80
44477;DHT22;30180;44.788;10.366;2023-08-12T06:19:07;25.30;59.80
44477;DHT22;30180;44.788;10.366;2023-08-12T06:21:35;25.40;59.90
44477;DHT22;30180;44.788;10.366;2023-08-12T06:24:04;25.30;59.80
44477;DHT22;30180;44.788;10.366;2023-08-12T06:26:32;25.30;59.80
44477;DHT22;30180;44.788;10.366;2023-08-12T06:29:01;25.30;59.80
44477;DHT22;30180;44.788;10.366;2023-08-12T06:31:32;25.30;59.80
44477;DHT22;30180;44.788;10.366;2023-08-12T06:34:02;25.40;59.90
44477;DHT22;30180;44.788;10.366;2023-08-12T06:36:30;25.30;59.80
44477;DHT22;30180;44.788;10.366;2023-08-12T06:38:59;25.30;60.50
44477;DHT22;30180;44.788;10.366;2023-08-12T06:41:27;25.40;59.90
44477;DHT22;30180;44.788;10.366;2023-08-12T06:43:55;25.40;59.90
44477;DHT22;30180;44.788;10.366;2023-08-12T06:46:24;25.40;59.90
44477;DHT22;30180;44.788;10.366;2023-08-12T06:48:52;25.30;59.90
44477;DHT22;30180;44.788;10.366;2023-08-12T06:51:22;25.30;59.80
44477;DHT22;30180;44.788;10.366;2023-08-12T06:53:50;25.30;59.80
44477;DHT22;30180;44.788;10.366;2023-08-12T06:56:19;25.30;59.80
44477;DHT22;30180;44.788;10.366;2023-08-12T06:58:47;25.40;59.90
44477;DHT22;30180;44.788;10.366;2023-08-12T07:01:15;25.40;59.90
44477;DHT22;30180;44.788;10.366;2023-08-12T07:03:43;25.40;59.90
44477;DHT22;30180;44.788;10.366;2023-08-12T07:06:12;25.40;59.90
44477;DHT22;30180;44.788;10.366;2023-08-12T07:08:42;25.40;59.90
44477;DHT22;30180;44.788;10.366;2023-08-12T07:11:10;25.30;59.80
44477;DHT22;30180;44.788;10.366;2023-08-12T07:13:38;25.30;59.80
44477;DHT22;30180;44.788;10.366;2023-08-12T07:16:07;25.30;59.80
44477;DHT22;30180;44.788;10.366;2023-08-12T07:18:35;25.40;59.90
44477;DHT22;30180;44.788;10.366;2023-08-12T07:21:03;25.40;59.90
44477;DHT22;30180;44.788;10.366;2023-08-12T07:23:32;25.40;59.90
44477;DHT22;30180;44.788;10.366;2023-08-12T07:26:02;25.40;59.90
44477;DHT22;30180;44.788;10.366;2023-08-12T07:28:30;25.30;59.90
44477;DHT22;30180;44.788;10.366;2023-08-12T07:31:00;25.40;60.10
44477;DHT22;30180;44.788;10.366;2023-08-12T07:33:29;25.30;60.00
44477;DHT22;30180;44.788;10.366;2023-08-12T07:35:57;25.30;60.00
44477;DHT22;30180;44.788;10.366;2023-08-12T07:38:25;25.30;59.90
44477;DHT22;30180;44.788;10.366;2023-08-12T07:40:54;25.30;60.00
44477;DHT22;30180;44.788;10.366;2023-08-12T07:43:24;25.30;60.00
44477;DHT22;30180;44.788;10.366;2023-08-12T07:45:52;25.30;60.00
44477;DHT22;30180;44.788;10.366;2023-08-12T07:48:35;25.30;60.00
44477;DHT22;30180;44.788;10.366;2023-08-12T07:51:05;25.30;60.00
44477;DHT22;30180;44.788;10.366;2023-08-12T07:53:33;25.30;60.00
44477;DHT22;30180;44.788;10.366;2023-08-12T07:56:02;25.30;60.00
44477;DHT22;30180;44.788;10.366;2023-08-12T07:58:31;25.30;60.00
44477;DHT22;30180;44.788;10.366;2023-08-12T08:00:59;25.30;60.00
44477;DHT22;30180;44.788;10.366;2023-08-12T08:03:28;25.30;60.00
44477;DHT22;30180;44.788;10.366;2023-08-12T08:05:56;25.30;60.20
44477;DHT22;30180;44.788;10.366;2023-08-12T08:08:24;25.30;60.10
44477;DHT22;30180;44.788;10.366;2023-08-12T08:10:53;25.30;60.20
44477;DHT22;30180;44.788;10.366;2023-08-12T08:13:21;25.30;60.20
44477;DHT22;30180;44.788;10.366;2023-08-12T08:15:51;25.30;60.20
44477;DHT22;30180;44.788;10.366;2023-08-12T08:18:20;25.30;60.20
44477;DHT22;30180;44.788;10.366;2023-08-12T08:20:48;25.30;60.20
44477;DHT22;30180;44.788;10.366;2023-08-12T08:23:17;25.30;60.20
44477;DHT22;30180;44.788;10.366;2023-08-12T08:25:45;25.40;60.40
44477;DHT22;30180;44.788;10.366;2023-08-12T08:28:14;25.40;60.40
44477;DHT22;30180;44.788;10.366;2023-08-12T08:30:42;25.40;60.40
44477;DHT22;30180;44.788;10.366;2023-08-12T08:33:12;25.30;60.30
44477;DHT22;30180;44.788;10.366;2023-08-12T08:35:41;25.40;60.40
44477;DHT22;30180;44.788;10.366;2023-08-12T08:38:09;25.40;60.40
44477;DHT22;30180;44.788;10.366;2023-08-12T08:40:38;25.30;60.30
44477;DHT22;30180;44.788;10.366;2023-08-12T08:43:08;25.40;60.40
44477;DHT22;30180;44.788;10.366;2023-08-12T08:45:37;25.30;60.40
44477;DHT22;30180;44.788;10.366;2023-08-12T08:48:07;25.30;60.40
44477;DHT22;30180;44.788;10.366;2023-08-12T08:50:39;25.30;60.40
44477;DHT22;30180;44.788;10.366;2023-08-12T08:53:09;25.40;60.50
44477;DHT22;30180;44.788;10.366;2023-08-12T08:55:37;25.40;60.50
44477;DHT22;30180;44.788;10.366;2023-08-12T08:58:06;25.40;60.50
44477;DHT22;30180;44.788;10.366;2023-08-12T09:00:35;25.40;60.50
44477;DHT22;30180;44.788;10.366;2023-08-12T09:03:05;25.40;60.50
44477;DHT22;30180;44.788;10.366;2023-08-12T09:05:34;25.40;60.50
44477;DHT22;30180;44.788;10.366;2023-08-12T09:08:06;25.30;60.50
44477;DHT22;30180;44.788;10.366;2023-08-12T09:10:39;25.30;60.50
44477;DHT22;30180;44.788;10.366;2023-08-12T09:13:08;25.30;60.50
44477;DHT22;30180;44.788;10.366;2023-08-12T09:15:37;25.40;60.60
44477;DHT22;30180;44.788;10.366;2023-08-12T09:18:05;25.30;60.50
44477;DHT22;30180;44.788;10.366;2023-08-12T09:20:34;25.40;60.60
44477;DHT22;30180;44.788;10.366;2023-08-12T09:23:04;25.30;60.50
44477;DHT22;30180;44.788;10.366;2023-08-12T09:25:35;25.40;60.60
44477;DHT22;30180;44.788;10.366;2023-08-12T09:28:05;25.40;60.70
44477;DHT22;30180;44.788;10.366;2023-08-12T09:30:34;25.30;60.60
44477;DHT22;30180;44.788;10.366;2023-08-12T09:33:04;25.30;60.60
44477;DHT22;30180;44.788;10.366;2023-08-12T09:35:35;25.30;60.60
44477;DHT22;30180;44.788;10.366;2023-08-12T09:38:06;25.40;60.60
44477;DHT22;30180;44.788;10.366;2023-08-12T09:40:35;25.40;60.60
44477;DHT22;30180;44.788;10.366;2023-08-12T09:43:04;25.30;60.60
44477;DHT22;30180;44.788;10.366;2023-08-12T09:45:35;25.40;60.60
44477;DHT22;30180;44.788;10.366;2023-08-12T09:48:04;25.30;60.60
44477;DHT22;30180;44.788;10.366;2023-08-12T09:50:36;25.40;60.70
44477;DHT22;30180;44.788;10.366;2023-08-12T09:53:05;25.30;60.60
44477;DHT22;30180;44.788;10.366;2023-08-12T09:55:35;25.40;60.70
44477;DHT22;30180;44.788;10.366;2023-08-12T09:58:06;25.30;60.60
44477;DHT22;30180;44.788;10.366;2023-08-12T10:00:37;25.40;60.70
44477;DHT22;30180;44.788;10.366;2023-08-12T10:03:08;25.30;60.60
44477;DHT22;30180;44.788;10.366;2023-08-12T10:05:41;25.30;60.60
44477;DHT22;30180;44.788;10.366;2023-08-12T10:08:12;25.40;60.70
44477;DHT22;30180;44.788;10.366;2023-08-12T10:10:42;25.40;60.70
44477;DHT22;30180;44.788;10.366;2023-08-12T10:13:16;25.30;60.60
44477;DHT22;30180;44.788;10.366;2023-08-12T10:15:45;25.30;60.60
44477;DHT22;30180;44.788;10.366;2023-08-12T10:18:15;25.30;60.70
44477;DHT22;30180;44.788;10.366;2023-08-12T10:20:44;25.30;60.60
44477;DHT22;30180;44.788;10.366;2023-08-12T10:23:16;25.30;60.70
44477;DHT22;30180;44.788;10.366;2023-08-12T10:25:45;25.30;60.70
44477;DHT22;30180;44.788;10.366;2023-08-12T10:28:18;25.30;60.60
44477;DHT22;30180;44.788;10.366;2023-08-12T10:30:47;25.30;60.60
44477;DHT22;30180;44.788;10.366;2023-08-12T10:33:16;25.40;60.70
44477;DHT22;30180;44.788;10.366;2023-08-12T10:35:46;25.30;60.60
44477;DHT22;30180;44.788;10.366;2023-08-12T10:38:20;25.40;60.70
44477;DHT22;30180;44.788;10.366;2023-08-12T10:40:50;25.30;60.60
44477;DHT22;30180;44.788;10.366;2023-08-12T10:43:18;25.30;60.60
44477;DHT22;30180;44.788;10.366;2023-08-12T10:45:47;25.40;60.70
44477;DHT22;30180;44.788;10.366;2023-08-12T10:48:18;25.30;60.70
44477;DHT22;30180;44.788;10.366;2023-08-12T10:50:49;25.30;60.70
44477;DHT22;30180;44.788;10.366;2023-08-12T10:53:23;25.30;61.30
44477;DHT22;30180;44.788;10.366;2023-08-12T10:55:57;25.30;60.70
44477;DHT22;30180;44.788;10.366;2023-08-12T10:58:29;25.30;60.70
44477;DHT22;30180;44.788;10.366;2023-08-12T11:00:58;25.30;60.70
44477;DHT22;30180;44.788;10.366;2023-08-12T11:03:32;25.30;60.70
44477;DHT22;30180;44.788;10.366;2023-08-12T11:06:04;25.30;60.70
44477;DHT22;30180;44.788;10.366;2023-08-12T11:08:34;25.30;60.70
44477;DHT22;30180;44.788;10.366;2023-08-12T11:11:19;25.30;60.70
44477;DHT22;30180;44.788;10.366;2023-08-12T11:13:53;25.30;60.70
44477;DHT22;30180;44.788;10.366;2023-08-12T11:16:31;25.30;60.70
44477;DHT22;30180;44.788;10.366;2023-08-12T11:19:00;25.30;60.70
44477;DHT22;30180;44.788;10.366;2023-08-12T11:21:29;25.30;60.70
44477;DHT22;30180;44.788;10.366;2023-08-12T11:23:59;25.30;60.70
44477;DHT22;30180;44.788;10.366;2023-08-12T11:26:28;25.30;60.70
44477;DHT22;30180;44.788;10.366;2023-08-12T11:28:57;25.30;60.70
44477;DHT22;30180;44.788;10.366;2023-08-12T11:31:26;25.30;60.70
44477;DHT22;30180;44.788;10.366;2023-08-12T11:33:54;25.30;60.70
44477;DHT22;30180;44.788;10.366;2023-08-12T11:36:22;25.30;60.70
44477;DHT22;30180;44.788;10.366;2023-08-12T11:38:51;25.40;60.70
44477;DHT22;30180;44.788;10.366;2023-08-12T11:41:22;25.30;60.70
44477;DHT22;30180;44.788;10.366;2023-08-12T11:43:50;25.30;60.70
44477;DHT22;30180;44.788;10.366;2023-08-12T11:46:19;25.30;60.70
44477;DHT22;30180;44.788;10.366;2023-08-12T11:48:47;25.30;60.70
44477;DHT22;30180;44.788;10.366;2023-08-12T11:51:18;25.30;60.70
44477;DHT22;30180;44.788;10.366;2023-08-12T11:53:46;25.30;60.70
44477;DHT22;30180;44.788;10.366;2023-08-12T11:56:14;25.30;60.70
44477;DHT22;30180;44.788;10.366;2023-08-12T11:58:44;25.40;60.70
44477;DHT22;30180;44.788;10.366;2023-08-12T12:01:21;25.40;60.70
44477;DHT22;30180;44.788;10.366;2023-08-12T12:03:51;25.30;60.60
44477;DHT22;30180;44.788;10.366;2023-08-12T12:06:29;25.30;60.70
44477;DHT22;30180;44.788;10.366;2023-08-12T12:09:00;25.30;60.60
44477;DHT22;30180;44.788;10.366;2023-08-12T12:11:32;25.40;60.70
44477;DHT22;30180;44.788;10.366;2023-08-12T12:14:04;25.30;60.60
44477;DHT22;30180;44.788;10.366;2023-08-12T12:16:42;25.30;60.60
44477;DHT22;30180;44.788;10.366;2023-08-12T12:19:15;25.30;60.70
44477;DHT22;30180;44.788;10.366;2023-08-12T12:21:46;25.30;60.60
44477;DHT22;30180;44.788;10.366;2023-08-12T12:24:14;25.30;60.60
44477;DHT22;30180;44.788;10.366;2023-08-12T12:26:43;25.30;60.60
44477;DHT22;30180;44.788;10.366;2023-08-12T12:29:13;25.30;60.60
44477;DHT22;30180;44.788;10.366;2023-08-12T12:31:42;25.30;60.60
44477;DHT22;30180;44.788;10.366;2023-08-12T12:34:10;25.30;60.60
44477;DHT22;30180;44.788;10.366;2023-08-12T12:36:41;25.30;61.20
44477;DHT22;30180;44.788;10.366;2023-08-12T12:39:09;25.30;60.60
44477;DHT22;30180;44.788;10.366;2023-08-12T12:41:37;25.30;60.60
44477;DHT22;30180;44.788;10.366;2023-08-12T12:44:06;25.30;60.60
44477;DHT22;30180;44.788;10.366;2023-08-12T12:46:35;25.30;60.60
44477;DHT22;30180;44.788;10.366;2023-08-12T12:49:04;25.30;60.70
44477;DHT22;30180;44.788;10.366;2023-08-12T12:51:32;25.30;60.70
44477;DHT22;30180;44.788;10.366;2023-08-12T12:54:01;25.30;60.70
44477;DHT22;30180;44.788;10.366;2023-08-12T12:56:29;25.30;60.60
44477;DHT22;30180;44.788;10.366;2023-08-12T12:58:57;25.30;60.70
44477;DHT22;30180;44.788;10.366;2023-08-12T13:01:26;25.30;60.60
44477;DHT22;30180;44.788;10.366;2023-08-12T13:03:55;25.30;60.60
44477;DHT22;30180;44.788;10.366;2023-08-12T13:06:24;25.30;60.60
44477;DHT22;30180;44.788;10.366;2023-08-12T13:08:52;25.30;60.70
44477;DHT22;30180;44.788;10.366;2023-08-12T13:11:21;25.30;60.70
44477;DHT22;30180;44.788;10.366;2023-08-12T13:13:49;25.30;60.60
44477;DHT22;30180;44.788;10.366;2023-08-12T13:16:17;25.30;60.60
44477;DHT22;30180;44.788;10.366;2023-08-12T13:18:46;25.30;60.60
44477;DHT22;30180;44.788;10.366;2023-08-12T13:21:15;25.30;60.60
44477;DHT22;30180;44.788;10.366;2023-08-12T13:23:45;25.30;60.60
44477;DHT22;30180;44.788;10.366;2023-08-12T13:26:13;25.30;60.60
44477;DHT22;30180;44.788;10.366;2023-08-12T13:28:41;25.30;60.60
44477;DHT22;30180;44.788;10.366;2023-08-12T13:31:10;25.30;60.60
44477;DHT22;30180;44.788;10.366;2023-08-12T13:33:39;25.30;60.60
44477;DHT22;30180;44.788;10.366;2023-08-12T13:36:07;25.30;60.60
44477;DHT22;30180;44.788;10.366;2023-08-12T13:38:37;25.30;60.60
44477;DHT22;30180;44.788;10.366;2023-08-12T13:41:05;25.30;60.60
44477;DHT22;30180;44.788;10.366;2023-08-12T13:43:33;25.30;60.60
44477;DHT22;30180;44.788;10.366;2023-08-12T13:46:02;25.30;60.60
44477;DHT22;30180;44.788;10.366;2023-08-12T13:48:30;25.30;60.60
44477;DHT22;30180;44.788;10.366;2023-08-12T13:50:58;25.30;60.60
44477;DHT22;30180;44.788;10.366;2023-08-12T13:53:27;25.30;60.60
44477;DHT22;30180;44.788;10.366;2023-08-12T13:55:57;25.30;60.60
44477;DHT22;30180;44.788;10.366;2023-08-12T13:58:25;25.30;60.60
44477;DHT22;30180;44.788;10.366;2023-08-12T14:00:54;25.40;60.60
44477;DHT22;30180;44.788;10.366;2023-08-12T14:03:22;25.30;60.60
44477;DHT22;30180;44.788;10.366;2023-08-12T14:05:50;25.30;60.60
44477;DHT22;30180;44.788;10.366;2023-08-12T14:08:19;25.30;60.60
44477;DHT22;30180;44.788;10.366;2023-08-12T14:10:47;25.30;60.60
44477;DHT22;30180;44.788;10.366;2023-08-12T14:13:18;25.30;60.60
44477;DHT22;30180;44.788;10.366;2023-08-12T14:15:46;25.30;60.60
44477;DHT22;30180;44.788;10.366;2023-08-12T14:18:15;25.30;60.50
44477;DHT22;30180;44.788;10.366;2023-08-12T14:20:43;25.30;60.60
44477;DHT22;30180;44.788;10.366;2023-08-12T14:23:12;25.30;60.60
44477;DHT22;30180;44.788;10.366;2023-08-12T14:25:40;25.30;60.60
44477;DHT22;30180;44.788;10.366;2023-08-12T14:28:09;25.30;60.50
44477;DHT22;30180;44.788;10.366;2023-08-12T14:30:38;25.40;60.60
44477;DHT22;30180;44.788;10.366;2023-08-12T14:33:07;25.40;60.60
44477;DHT22;30180;44.788;10.366;2023-08-12T14:35:35;25.30;60.60
44477;DHT22;30180;44.788;10.366;2023-08-12T14:38:04;25.40;60.60
44477;DHT22;30180;44.788;10.366;2023-08-12T14:40:32;25.30;60.50
44477;DHT22;30180;44.788;10.366;2023-08-12T14:43:01;25.30;60.50
44477;DHT22;30180;44.788;10.366;2023-08-12T14:45:29;25.40;60.60
44477;DHT22;30180;44.788;10.366;2023-08-12T14:47:59;25.30;60.50
44477;DHT22;30180;44.788;10.366;2023-08-12T14:50:28;25.30;60.60
44477;DHT22;30180;44.788;10.366;2023-08-12T14:52:58;25.40;60.60
44477;DHT22;30180;44.788;10.366;2023-08-12T14:55:27;25.40;60.60
44477;DHT22;30180;44.788;10.366;2023-08-12T14:57:55;25.30;60.60
44477;DHT22;30180;44.788;10.366;2023-08-12T15:00:23;25.40;60.70
44477;DHT22;30180;44.788;10.366;2023-08-12T15:02:52;25.40;60.60
44477;DHT22;30180;44.788;10.366;2023-08-12T15:05:22;25.40;60.70
44477;DHT22;30180;44.788;10.366;2023-08-12T15:07:50;25.40;60.70
44477;DHT22;30180;44.788;10.366;2023-08-12T15:10:18;25.40;60.70
44477;DHT22;30180;44.788;10.366;2023-08-12T15:12:47;25.40;60.70
44477;DHT22;30180;44.788;10.366;2023-08-12T15:15:15;25.40;60.60
44477;DHT22;30180;44.788;10.366;2023-08-12T15:17:44;25.40;60.70
44477;DHT22;30180;44.788;10.366;2023-08-12T15:20:12;25.40;60.70
44477;DHT22;30180;44.788;10.366;2023-08-12T15:22:42;25.40;60.70
44477;DHT22;30180;44.788;10.366;2023-08-12T15:25:10;25.40;60.70
44477;DHT22;30180;44.788;10.366;2023-08-12T15:27:38;25.40;60.70